Airfield :
LOGIN :

Register | Disclaimer

   EN    FR    IT 

 










Legend :    VFR   Marginal VFR   IFR   Intensive IFR   Very Intensive IFR
Visi :
Ceiling :
>= 8 km
>= 3000ft
5 to 8 km
1000 to 3000 ft
1500m to 5 km
500 to 1000 ft
800 to 1500m
200 to 500 ft
< 800m
< 200 ft
Symbols :   Thunderstorms  Fog  Heavy snow  Heavy precipitations  Wind > 20 kt
SIGMETs :     Misc.  Thunderstorms  Icing  Turbulence  Mountain Waves  Volcanic Ashes






- Airport Elevation : 1766 ft


ETHL - Laupheim AB

CURRENT METAR :
  • 232120Z 34005KT 5000 -TSRA BR SCT009 BKN021CB 16/15 Q1017 RERA WHT

EXPIRED METARs :
  • 232039Z 31011G22KT 3000 +TSRA BR FEW009 BKN023CB 16/15 Q1016 YLO
  • 232025Z 28016G28KT 4000 +TSRA BR FEW009 BKN021CB 16/15 Q1017 GRN
  • 231920Z 05012KT 4000 TSRA BR SCT030CB SCT040TCU BKN080 19/17 Q1014 GRN
  • 231903Z 07014G27KT 4000 TSRA BR SCT030CB SCT040TCU BKN080 19/16 Q1015 GRN
  • 231843Z 06011KT 9999 -TSRA FEW030CB SCT033TCU BKN210 19/17 Q1015 BLU+

TAF TAF ETHL
Valid from the 23 at 14:00 until the 23 at 23:00 UTC


231320Z 2314/2323 06007KT 9999 NSW SCT030
TEMPO 2316/2323 35020G35KT 2000 +TSRAGR SCT010 BKN030CB



MET'MAP, your aeronautical weather chart ! - Copyright ORBIFLY December 2007 - Disclaimer

ORBIFLY MET'MAP TEAM :

Programming & Development : Alexandra Zaïnal
Concept & original design : Baudouin d'Aumeries
Assistance for programming : Marc-Olivier Méhu
Technical & hardware support : Manuel Goepfert

Contact : metmap@orbifly.com




SOURCES & CREDITS :

   NOAA